createdAt,value
2018-08-28T00:00:42.594Z,6.47
2018-08-28T00:03:10.722Z,6.40
2018-08-28T00:05:39.097Z,8.43
2018-08-28T00:08:07.886Z,6.17
2018-08-28T00:10:36.040Z,6.07
2018-08-28T00:13:04.173Z,5.97
2018-08-28T00:15:32.550Z,7.23
2018-08-28T00:18:01.383Z,7.13
2018-08-28T00:20:29.551Z,8.07
2018-08-28T00:22:57.703Z,8.00
2018-08-28T00:25:25.855Z,10.23
2018-08-28T00:27:53.987Z,8.73
2018-08-28T00:30:22.139Z,7.00
2018-08-28T00:32:50.287Z,6.70
2018-08-28T00:35:18.432Z,6.83
2018-08-28T00:37:46.561Z,7.77
2018-08-28T00:40:14.697Z,8.40
2018-08-28T00:42:43.194Z,10.17
2018-08-28T00:45:11.418Z,12.97
2018-08-28T00:47:39.819Z,15.47
2018-08-28T00:50:07.979Z,9.83
2018-08-28T00:52:36.118Z,9.67
2018-08-28T00:55:04.367Z,11.13
2018-08-28T00:57:32.494Z,10.60
2018-08-28T01:00:00.654Z,14.13
2018-08-28T01:02:29.535Z,10.70
2018-08-28T01:04:57.747Z,14.83
2018-08-28T01:07:25.862Z,16.03
2018-08-28T01:09:54.565Z,10.17
2018-08-28T01:12:22.738Z,9.63
2018-08-28T01:14:50.881Z,10.70
2018-08-28T01:17:19.022Z,10.87
2018-08-28T01:19:47.162Z,9.40
2018-08-28T01:22:15.350Z,8.30
2018-08-28T01:24:43.494Z,10.20
2018-08-28T01:27:12.460Z,7.30
2018-08-28T01:29:41.130Z,6.87
2018-08-28T01:32:09.269Z,8.60
2018-08-28T01:34:37.422Z,6.13
2018-08-28T01:37:06.129Z,10.63
2018-08-28T01:39:34.229Z,9.77
2018-08-28T01:42:02.376Z,10.03
2018-08-28T01:44:30.518Z,14.23
2018-08-28T01:46:58.669Z,16.20
2018-08-28T01:49:26.835Z,17.10
2018-08-28T01:51:54.969Z,13.37
2018-08-28T01:54:23.106Z,14.47
2018-08-28T01:56:51.275Z,17.67
2018-08-28T01:59:19.433Z,21.87
2018-08-28T02:01:47.587Z,15.47
2018-08-28T02:04:15.737Z,9.10
2018-08-28T02:06:45.106Z,12.63
2018-08-28T02:09:13.290Z,14.67
2018-08-28T02:11:41.423Z,9.37
2018-08-28T02:14:09.557Z,10.53
2018-08-28T02:16:37.705Z,12.87
2018-08-28T02:19:05.866Z,17.00
2018-08-28T02:21:34.014Z,13.93
2018-08-28T02:24:02.171Z,12.60
2018-08-28T02:26:30.317Z,11.20
2018-08-28T02:28:58.458Z,9.53
2018-08-28T02:34:17.225Z,14.20
2018-08-28T02:36:45.394Z,11.03
2018-08-28T02:39:13.718Z,12.17
2018-08-28T02:41:41.857Z,8.43
2018-08-28T02:44:10.140Z,9.00
2018-08-28T02:46:38.888Z,10.93
2018-08-28T02:49:07.314Z,12.10
2018-08-28T02:51:36.116Z,12.13
2018-08-28T02:54:04.314Z,13.20
2018-08-28T02:56:32.465Z,13.33
2018-08-28T02:59:00.613Z,11.43
2018-08-28T03:01:30.346Z,9.77
2018-08-28T03:03:58.474Z,9.90
2018-08-28T03:06:27.977Z,9.20
2018-08-28T03:08:56.122Z,8.03
2018-08-28T03:11:24.277Z,8.13
2018-08-28T03:13:52.462Z,6.83
2018-08-28T03:16:20.630Z,6.40
2018-08-28T03:18:48.776Z,7.07
2018-08-28T03:21:16.916Z,6.00
2018-08-28T03:23:45.059Z,10.87
2018-08-28T03:26:13.193Z,9.30
2018-08-28T03:28:41.326Z,7.83
2018-08-28T03:31:09.476Z,8.30
2018-08-28T03:33:37.629Z,6.73
2018-08-28T03:36:05.779Z,6.90
2018-08-28T03:38:34.694Z,12.03
2018-08-28T03:41:02.847Z,11.53
2018-08-28T03:43:31.084Z,12.93
2018-08-28T03:45:59.715Z,13.53
2018-08-28T03:48:27.837Z,14.80
2018-08-28T03:50:55.971Z,12.23
2018-08-28T03:53:24.111Z,12.07
2018-08-28T03:55:52.268Z,10.60
2018-08-28T03:58:20.427Z,12.10
2018-08-28T04:00:48.562Z,7.53
2018-08-28T04:03:16.781Z,11.70
2018-08-28T04:05:44.905Z,8.57
2018-08-28T04:08:14.087Z,11.97
2018-08-28T04:10:42.249Z,8.13
2018-08-28T04:13:10.649Z,6.37
2018-08-28T04:15:38.806Z,5.23
2018-08-28T04:18:06.944Z,6.07
2018-08-28T04:20:35.073Z,5.70
2018-08-28T04:23:03.221Z,8.17
2018-08-28T04:25:31.363Z,12.70
2018-08-28T04:28:00.087Z,10.10
2018-08-28T04:30:28.241Z,8.57
2018-08-28T04:32:56.371Z,7.77
2018-08-28T04:35:25.038Z,6.47
2018-08-28T04:37:53.364Z,9.47
2018-08-28T04:40:21.722Z,5.60
2018-08-28T04:42:50.079Z,7.03
2018-08-28T04:45:18.228Z,9.50
2018-08-28T04:47:46.363Z,10.17
2018-08-28T04:50:14.494Z,12.07
2018-08-28T04:52:42.642Z,9.83
2018-08-28T04:55:10.837Z,9.60
2018-08-28T04:57:38.982Z,13.03
2018-08-28T05:00:07.710Z,16.90
2018-08-28T05:02:37.000Z,10.80
2018-08-28T05:05:08.089Z,11.70
2018-08-28T05:07:36.232Z,10.83
2018-08-28T05:10:05.130Z,9.50
2018-08-28T05:12:33.270Z,9.23
2018-08-28T05:15:01.690Z,9.27
2018-08-28T05:17:29.832Z,10.00
2018-08-28T05:19:57.974Z,10.63
2018-08-28T05:22:26.132Z,12.73
2018-08-28T05:24:54.274Z,15.50
2018-08-28T05:27:22.538Z,14.30
2018-08-28T05:29:50.779Z,12.97
2018-08-28T05:32:19.359Z,13.73
2018-08-28T05:34:47.498Z,12.10
2018-08-28T05:37:16.065Z,11.73
2018-08-28T05:39:44.188Z,9.50
2018-08-28T05:42:12.338Z,13.63
2018-08-28T05:44:40.474Z,14.07
2018-08-28T05:47:08.741Z,14.57
2018-08-28T05:49:37.417Z,16.80
2018-08-28T05:52:11.962Z,15.40
2018-08-28T05:54:40.130Z,20.10
2018-08-28T05:57:08.398Z,17.03
2018-08-28T05:59:36.955Z,17.20
2018-08-28T06:02:05.095Z,16.37
2018-08-28T06:04:33.377Z,20.93
2018-08-28T06:07:01.613Z,13.83
2018-08-28T06:09:29.770Z,13.37
2018-08-28T06:11:57.914Z,11.60
2018-08-28T06:14:26.138Z,14.83
2018-08-28T06:16:54.282Z,10.70
2018-08-28T06:19:22.426Z,10.80
2018-08-28T06:21:50.573Z,11.50
2018-08-28T06:24:18.722Z,6.40
2018-08-28T06:26:47.190Z,6.83
2018-08-28T06:29:15.918Z,5.70
2018-08-28T06:31:44.059Z,8.00
2018-08-28T06:34:12.268Z,9.18
2018-08-28T06:36:40.427Z,6.12
2018-08-28T06:39:09.786Z,6.47
2018-08-28T06:41:38.115Z,8.98
2018-08-28T06:44:09.911Z,7.65
2018-08-28T06:46:38.175Z,5.75
2018-08-28T06:49:06.326Z,5.97
2018-08-28T06:51:34.478Z,8.70
2018-08-28T06:54:02.642Z,7.30
2018-08-28T06:56:30.777Z,7.20
2018-08-28T06:58:58.930Z,8.98
2018-08-28T07:01:27.089Z,6.70
2018-08-28T07:03:55.238Z,7.83
2018-08-28T07:06:23.386Z,5.70
2018-08-28T07:08:51.552Z,8.05
2018-08-28T07:11:20.885Z,7.30
2018-08-28T07:13:49.026Z,8.28
2018-08-28T07:16:17.216Z,10.08
2018-08-28T07:18:45.529Z,8.23
2018-08-28T07:21:13.628Z,6.72
2018-08-28T07:23:41.747Z,8.13
2018-08-28T07:26:09.970Z,6.70
2018-08-28T07:28:38.058Z,7.42
2018-08-28T07:31:06.198Z,4.53
2018-08-28T07:33:34.411Z,9.85
2018-08-28T07:36:02.930Z,7.12
2018-08-28T07:38:31.262Z,7.08
2018-08-28T07:40:59.434Z,10.13
2018-08-28T07:43:28.319Z,5.53
2018-08-28T07:45:56.546Z,7.58
2018-08-28T07:48:24.780Z,8.03
2018-08-28T07:50:52.900Z,8.58
2018-08-28T07:53:21.066Z,8.38
2018-08-28T07:55:49.222Z,10.03
2018-08-28T07:58:17.368Z,7.30
2018-08-28T08:00:45.735Z,9.98
2018-08-28T08:03:13.878Z,9.00
2018-08-28T08:05:42.027Z,5.37
2018-08-28T08:08:10.185Z,7.35
2018-08-28T08:10:38.581Z,6.72
2018-08-28T08:13:06.484Z,5.12
2018-08-28T08:15:34.668Z,7.55
2018-08-28T08:18:02.785Z,8.10
2018-08-28T08:20:30.937Z,7.35
2018-08-28T08:22:59.111Z,5.85
2018-08-28T08:25:27.271Z,8.55
2018-08-28T08:28:09.764Z,8.13
2018-08-28T08:30:37.747Z,7.58
2018-08-28T08:33:05.925Z,7.28
2018-08-28T08:35:34.087Z,7.45
2018-08-28T08:38:02.256Z,8.90
2018-08-28T08:40:30.418Z,9.85
2018-08-28T08:42:58.572Z,10.60
2018-08-28T08:45:26.996Z,8.18
2018-08-28T08:47:55.914Z,8.28
2018-08-28T08:50:24.038Z,7.92
2018-08-28T08:52:52.933Z,7.50
2018-08-28T08:55:21.333Z,6.50
2018-08-28T08:57:51.425Z,6.28
2018-08-28T09:00:19.565Z,7.00
2018-08-28T09:02:47.874Z,8.20
2018-08-28T09:05:16.006Z,6.28
2018-08-28T09:07:44.158Z,8.03
2018-08-28T09:10:12.578Z,6.92
2018-08-28T09:12:40.720Z,6.87
2018-08-28T09:15:08.891Z,8.53
2018-08-28T09:17:37.030Z,6.22
2018-08-28T09:20:05.569Z,7.97
2018-08-28T09:22:33.710Z,7.70
2018-08-28T09:25:01.862Z,8.73
2018-08-28T09:27:30.040Z,10.70
2018-08-28T09:29:58.207Z,8.90
2018-08-28T09:32:26.492Z,8.65
2018-08-28T09:34:54.576Z,7.00
2018-08-28T09:37:22.689Z,5.72
2018-08-28T09:39:50.834Z,7.28
2018-08-28T09:42:19.058Z,6.85
2018-08-28T09:44:47.285Z,6.62
2018-08-28T09:47:15.443Z,9.98
2018-08-28T09:49:43.619Z,5.60
2018-08-28T09:52:11.757Z,7.37
2018-08-28T09:54:39.936Z,7.53
2018-08-28T09:57:08.087Z,6.40
2018-08-28T09:59:36.237Z,7.42
2018-08-28T10:02:04.391Z,7.00
2018-08-28T10:04:32.538Z,7.30
2018-08-28T10:07:00.686Z,5.97
2018-08-28T10:09:28.839Z,9.43
2018-08-28T10:11:56.980Z,6.60
2018-08-28T10:14:25.138Z,6.65
2018-08-28T10:16:53.311Z,10.03
2018-08-28T10:19:21.562Z,7.55
2018-08-28T10:21:49.762Z,9.40
2018-08-28T10:24:18.463Z,5.35
2018-08-28T10:26:46.632Z,8.40
2018-08-28T10:29:14.849Z,7.47
2018-08-28T10:31:43.051Z,8.45
2018-08-28T10:34:11.237Z,6.90
2018-08-28T10:36:39.410Z,9.10
2018-08-28T10:39:08.890Z,6.25
2018-08-28T10:41:37.082Z,5.47
2018-08-28T10:44:05.278Z,8.15
2018-08-28T10:46:33.500Z,6.67
2018-08-28T10:49:01.949Z,11.55
2018-08-28T10:51:30.205Z,6.60
2018-08-28T10:53:58.363Z,6.28
2018-08-28T10:56:26.567Z,6.30
2018-08-28T10:58:54.839Z,6.62
2018-08-28T11:01:22.973Z,6.55
2018-08-28T11:03:51.162Z,9.43
2018-08-28T11:06:19.317Z,5.97
2018-08-28T11:08:47.538Z,7.60
2018-08-28T11:11:15.729Z,7.00
2018-08-28T11:13:43.932Z,5.80
2018-08-28T11:16:13.087Z,7.40
2018-08-28T11:18:41.424Z,5.22
2018-08-28T11:21:09.636Z,6.30
2018-08-28T11:23:37.812Z,8.48
2018-08-28T11:26:05.989Z,6.87
2018-08-28T11:28:34.182Z,8.05
2018-08-28T11:31:02.339Z,8.48
2018-08-28T11:33:30.534Z,7.92
2018-08-28T11:35:58.722Z,5.78
2018-08-28T11:38:26.971Z,7.62
2018-08-28T11:40:55.708Z,5.10
2018-08-28T11:43:23.882Z,9.05
2018-08-28T11:45:52.045Z,6.42
2018-08-28T11:48:20.434Z,6.05
2018-08-28T11:50:48.582Z,6.25
2018-08-28T11:53:16.891Z,10.15
2018-08-28T11:55:45.056Z,7.12
2018-08-28T11:58:13.218Z,7.33
2018-08-28T12:00:41.356Z,6.72
2018-08-28T12:03:09.959Z,7.12
2018-08-28T12:05:38.127Z,5.30
2018-08-28T12:08:06.334Z,6.67
2018-08-28T12:10:36.374Z,5.40
2018-08-28T12:13:04.647Z,8.55
2018-08-28T12:15:32.853Z,6.37
2018-08-28T12:18:02.133Z,6.72
2018-08-28T12:20:30.482Z,6.22
2018-08-28T12:22:59.230Z,6.58
2018-08-28T12:25:27.430Z,7.87
2018-08-28T12:27:55.594Z,7.12
2018-08-28T12:30:23.794Z,4.58
2018-08-28T12:32:51.966Z,3.72
2018-08-28T12:35:20.132Z,4.33
2018-08-28T12:37:48.319Z,6.20
2018-08-28T12:40:16.581Z,5.05
2018-08-28T12:42:45.131Z,6.83
2018-08-28T12:45:13.277Z,4.83
2018-08-28T12:47:41.533Z,5.12
2018-08-28T12:50:10.446Z,6.53
2018-08-28T12:52:42.179Z,6.15
2018-08-28T12:55:10.858Z,5.62
2018-08-28T12:57:39.036Z,5.35
2018-08-28T13:00:07.551Z,4.95
2018-08-28T13:02:35.773Z,4.35
2018-08-28T13:05:04.616Z,6.42
2018-08-28T13:07:32.969Z,3.90
2018-08-28T13:10:01.138Z,5.20
2018-08-28T13:12:29.266Z,5.08
2018-08-28T13:14:57.791Z,5.85
2018-08-28T13:17:26.250Z,5.62
2018-08-28T13:19:54.403Z,5.42
2018-08-28T13:22:22.986Z,4.25
2018-08-28T13:24:51.239Z,5.67
2018-08-28T13:27:19.368Z,5.45
2018-08-28T13:29:47.591Z,4.62
2018-08-28T13:32:15.739Z,4.78
2018-08-28T13:34:43.942Z,4.95
2018-08-28T13:37:12.209Z,6.17
2018-08-28T13:39:40.368Z,4.33
2018-08-28T13:42:08.552Z,5.17
2018-08-28T13:44:36.725Z,3.65
2018-08-28T13:47:05.446Z,5.17
2018-08-28T13:49:34.174Z,5.78
2018-08-28T13:52:02.346Z,5.35
2018-08-28T13:54:30.569Z,5.55
2018-08-28T13:56:58.830Z,5.15
2018-08-28T13:59:27.105Z,8.13
2018-08-28T14:01:55.231Z,5.42
2018-08-28T14:04:23.386Z,3.17
2018-08-28T14:06:51.604Z,6.22
2018-08-28T14:09:19.905Z,6.12
2018-08-28T14:11:48.180Z,4.60
2018-08-28T14:14:16.333Z,4.22
2018-08-28T14:16:44.731Z,2.92
2018-08-28T14:19:12.919Z,5.33
2018-08-28T14:21:41.094Z,6.28
2018-08-28T14:24:09.306Z,2.65
2018-08-28T14:26:37.514Z,3.87
2018-08-28T14:29:09.575Z,4.90
2018-08-28T14:31:37.722Z,3.90
2018-08-28T14:34:05.913Z,4.05
2018-08-28T14:36:34.138Z,6.05
2018-08-28T14:39:02.514Z,4.03
2018-08-28T14:41:31.037Z,3.95
2018-08-28T14:43:59.256Z,3.85
2018-08-28T14:46:27.419Z,4.95
2018-08-28T14:48:55.593Z,3.90
2018-08-28T14:51:23.778Z,6.80
2018-08-28T14:53:52.669Z,4.33
2018-08-28T14:56:22.632Z,3.42
2018-08-28T14:58:50.790Z,3.35
2018-08-28T15:01:18.982Z,4.35
2018-08-28T15:03:47.204Z,5.83
2018-08-28T15:06:15.381Z,3.35
2018-08-28T15:08:43.557Z,5.10
2018-08-28T15:11:12.468Z,3.58
2018-08-28T15:13:40.719Z,3.83
2018-08-28T15:16:10.246Z,3.85
2018-08-28T15:18:38.455Z,4.97
2018-08-28T15:21:06.708Z,3.62
2018-08-28T15:23:34.854Z,6.35
2018-08-28T15:26:03.002Z,6.70
2018-08-28T15:28:31.145Z,3.20
2018-08-28T15:30:59.332Z,3.52
2018-08-28T15:33:27.511Z,5.30
2018-08-28T15:35:55.683Z,2.95
2018-08-28T15:38:23.893Z,4.35
2018-08-28T15:40:52.022Z,4.78
2018-08-28T15:43:20.199Z,3.37
2018-08-28T15:45:48.371Z,5.72
2018-08-28T15:48:16.546Z,3.58
2018-08-28T15:50:44.718Z,6.03
2018-08-28T15:53:12.908Z,4.50
2018-08-28T15:55:41.183Z,5.70
2018-08-28T15:58:09.469Z,4.37
2018-08-28T16:00:37.637Z,4.05
2018-08-28T16:03:06.018Z,5.60
2018-08-28T16:05:34.562Z,4.62
2018-08-28T16:08:02.837Z,6.12
2018-08-28T16:10:31.060Z,2.95
2018-08-28T16:12:59.276Z,4.85
2018-08-28T16:15:27.449Z,3.58
2018-08-28T16:17:55.847Z,5.30
2018-08-28T16:20:24.913Z,3.00
2018-08-28T16:22:56.358Z,3.95
2018-08-28T16:25:24.622Z,4.30
2018-08-28T16:27:52.919Z,3.30
2018-08-28T16:30:21.060Z,2.92
2018-08-28T16:32:49.455Z,4.95
2018-08-28T16:35:17.643Z,4.12
2018-08-28T16:37:46.046Z,4.60
2018-08-28T16:40:14.227Z,6.05
2018-08-28T16:42:42.475Z,4.03
2018-08-28T16:45:10.618Z,3.83
2018-08-28T16:47:39.730Z,3.27
2018-08-28T16:50:08.060Z,3.30
2018-08-28T16:52:36.933Z,3.42
2018-08-28T16:55:23.127Z,5.70
2018-08-28T16:57:51.318Z,3.12
2018-08-28T17:00:19.481Z,5.03
2018-08-28T17:02:48.391Z,4.60
2018-08-28T17:05:16.526Z,3.12
2018-08-28T17:07:44.698Z,3.72
2018-08-28T17:10:12.894Z,2.85
2018-08-28T17:12:41.071Z,3.30
2018-08-28T17:15:09.359Z,3.25
2018-08-28T17:17:37.430Z,3.98
2018-08-28T17:20:05.677Z,3.12
2018-08-28T17:22:33.872Z,3.62
2018-08-28T17:25:02.054Z,5.58
2018-08-28T17:27:30.310Z,3.50
2018-08-28T17:29:58.523Z,3.20
2018-08-28T17:32:26.718Z,5.40
2018-08-28T17:34:54.926Z,5.28
2018-08-28T17:37:23.921Z,3.60
2018-08-28T17:39:52.001Z,3.65
2018-08-28T17:42:20.190Z,5.92
2018-08-28T17:44:48.444Z,4.33
2018-08-28T17:47:16.638Z,4.40
2018-08-28T17:49:44.845Z,5.60
2018-08-28T17:52:13.172Z,4.35
2018-08-28T17:54:41.339Z,5.75
2018-08-28T17:57:09.510Z,4.58
2018-08-28T17:59:37.702Z,5.12
2018-08-28T18:02:06.833Z,6.47
2018-08-28T18:04:35.345Z,5.95
2018-08-28T18:07:03.518Z,6.42
2018-08-28T18:09:33.726Z,5.35
2018-08-28T18:12:01.888Z,7.28
2018-08-28T18:14:30.079Z,6.45
2018-08-28T18:16:58.256Z,6.87
2018-08-28T18:19:26.486Z,7.55
2018-08-28T18:21:55.103Z,6.08
2018-08-28T18:24:23.434Z,7.45
2018-08-28T18:26:52.081Z,4.78
2018-08-28T18:29:20.242Z,8.00
2018-08-28T18:31:48.450Z,5.45
2018-08-28T18:34:16.622Z,11.08
2018-08-28T18:36:44.841Z,4.90
2018-08-28T18:39:13.623Z,9.55
2018-08-28T18:41:41.915Z,10.05
2018-08-28T18:44:10.103Z,5.20
2018-08-28T18:46:38.296Z,5.60
2018-08-28T18:49:06.479Z,7.90
2018-08-28T18:51:34.678Z,6.95
2018-08-28T18:54:02.861Z,5.58
2018-08-28T18:56:31.486Z,7.63
2018-08-28T18:58:59.693Z,5.67
2018-08-28T19:01:28.666Z,10.72
2018-08-28T19:04:04.553Z,6.60
2018-08-28T19:06:32.790Z,7.83
2018-08-28T19:09:01.002Z,7.20
2018-08-28T19:11:29.842Z,7.00
2018-08-28T19:13:58.018Z,7.83
2018-08-28T19:16:26.226Z,7.60
2018-08-28T19:18:54.402Z,7.37
2018-08-28T19:21:22.609Z,6.90
2018-08-28T19:23:51.796Z,8.47
2018-08-28T19:26:19.962Z,6.53
2018-08-28T19:28:48.335Z,5.60
2018-08-28T19:31:23.362Z,9.60
2018-08-28T19:33:51.695Z,5.47
2018-08-28T19:36:19.877Z,7.53
2018-08-28T19:38:48.092Z,7.03
2018-08-28T19:41:16.282Z,5.10
2018-08-28T19:43:44.914Z,5.63
2018-08-28T19:46:13.168Z,6.63
2018-08-28T19:48:42.050Z,6.00
2018-08-28T19:51:10.197Z,6.87
2018-08-28T19:53:38.441Z,5.87
2018-08-28T19:56:06.633Z,7.17
2018-08-28T19:58:35.222Z,7.47
2018-08-28T20:01:05.469Z,8.60
2018-08-28T20:03:33.665Z,8.57
2018-08-28T20:06:02.657Z,5.70
2018-08-28T20:08:30.845Z,5.97
2018-08-28T20:11:00.074Z,5.73
2018-08-28T20:13:28.267Z,10.67
2018-08-28T20:15:56.512Z,7.47
2018-08-28T20:18:25.734Z,10.77
2018-08-28T20:20:54.023Z,7.80
2018-08-28T20:23:22.105Z,5.63
2018-08-28T20:25:50.330Z,8.27
2018-08-28T20:28:18.488Z,6.67
2018-08-28T20:30:46.689Z,9.37
2018-08-28T20:33:14.869Z,7.87
2018-08-28T20:35:43.080Z,6.67
2018-08-28T20:38:11.474Z,7.10
2018-08-28T20:40:39.653Z,6.40
2018-08-28T20:43:08.193Z,5.67
2018-08-28T20:45:36.371Z,6.47
2018-08-28T20:48:04.578Z,9.17
2018-08-28T20:50:32.838Z,10.00
2018-08-28T20:53:01.093Z,7.13
2018-08-28T20:55:29.267Z,8.57
2018-08-28T20:57:57.487Z,9.27
2018-08-28T21:00:26.674Z,6.63
2018-08-28T21:02:54.898Z,7.47
2018-08-28T21:05:31.394Z,9.20
2018-08-28T21:08:00.707Z,7.27
2018-08-28T21:10:29.507Z,9.00
2018-08-28T21:12:57.764Z,8.40
2018-08-28T21:15:25.879Z,7.90
2018-08-28T21:17:54.415Z,9.43
2018-08-28T21:20:22.651Z,7.73
2018-08-28T21:22:51.080Z,10.00
2018-08-28T21:25:19.282Z,10.57
2018-08-28T21:27:47.454Z,4.50
2018-08-28T21:30:15.609Z,8.43
2018-08-28T21:32:43.840Z,9.27
2018-08-28T21:35:12.114Z,11.37
2018-08-28T21:37:40.324Z,10.63
2018-08-28T21:40:08.546Z,8.93
2018-08-28T21:42:36.718Z,8.07
2018-08-28T21:45:04.942Z,9.53
2018-08-28T21:47:33.113Z,6.77
2018-08-28T21:50:01.333Z,8.40
2018-08-28T21:52:29.485Z,7.50
2018-08-28T21:55:00.659Z,7.93
2018-08-28T21:57:28.831Z,8.97
2018-08-28T21:59:57.008Z,8.93
2018-08-28T22:02:25.210Z,8.33
2018-08-28T22:04:53.372Z,10.77
2018-08-28T22:07:27.088Z,9.33
2018-08-28T22:09:56.055Z,8.53
2018-08-28T22:12:24.259Z,10.50
2018-08-28T22:14:52.431Z,9.03
2018-08-28T22:17:21.365Z,9.20
2018-08-28T22:19:49.723Z,10.13
2018-08-28T22:22:17.930Z,13.47
2018-08-28T22:24:46.103Z,7.67
2018-08-28T22:27:14.246Z,7.70
2018-08-28T22:29:42.614Z,12.70
2018-08-28T22:32:10.978Z,9.00
2018-08-28T22:34:39.409Z,9.70
2018-08-28T22:37:07.596Z,10.50
2018-08-28T22:39:35.882Z,9.30
2018-08-28T22:42:04.226Z,9.47
2018-08-28T22:44:32.506Z,13.40
2018-08-28T22:47:00.694Z,7.33
2018-08-28T22:49:28.898Z,7.57
2018-08-28T22:51:57.569Z,12.37
2018-08-28T22:54:25.802Z,13.90
2018-08-28T22:56:54.011Z,9.77
2018-08-28T22:59:22.222Z,9.13
2018-08-28T23:01:50.421Z,10.83
2018-08-28T23:04:18.606Z,11.73
2018-08-28T23:06:46.833Z,12.80
2018-08-28T23:09:15.066Z,10.77
2018-08-28T23:11:43.997Z,10.97
2018-08-28T23:14:12.182Z,10.03
2018-08-28T23:16:40.366Z,16.50
2018-08-28T23:19:08.566Z,12.10
2018-08-28T23:21:36.764Z,12.77
2018-08-28T23:24:05.154Z,11.50
2018-08-28T23:26:33.357Z,10.10
2018-08-28T23:29:01.525Z,16.03
2018-08-28T23:31:30.115Z,12.00
2018-08-28T23:33:58.230Z,9.13
2018-08-28T23:36:26.391Z,8.37
2018-08-28T23:38:54.597Z,14.50
2018-08-28T23:41:22.821Z,11.47
2018-08-28T23:43:51.014Z,14.73
2018-08-28T23:46:19.213Z,11.93
2018-08-28T23:48:47.451Z,12.33
2018-08-28T23:51:15.721Z,12.50
2018-08-28T23:53:44.292Z,9.80
2018-08-28T23:56:14.869Z,10.83
2018-08-28T23:58:43.726Z,8.10
